sensor_id;sensor_type;location;lat;lon;timestamp;P1;durP1;ratioP1;P2;durP2;ratioP2
32325;SDS011;45767;52.316;5.040;2023-06-22T00:21:01;21.9;;;15.1;;
32325;SDS011;45767;52.316;5.040;2023-06-22T00:51:03;22.9;;;16.1;;
32325;SDS011;45767;52.316;5.040;2023-06-22T01:16:18;unavailable;;;unavailable;;
32325;SDS011;45767;52.316;5.040;2023-06-22T01:21:05;26.6;;;18.7;;
32325;SDS011;45767;52.316;5.040;2023-06-22T01:51:06;24.1;;;16.9;;
32325;SDS011;45767;52.316;5.040;2023-06-22T02:21:08;21.7;;;14.6;;
32325;SDS011;45767;52.316;5.040;2023-06-22T02:51:09;17.6;;;13.1;;
32325;SDS011;45767;52.316;5.040;2023-06-22T03:21:10;19.8;;;14.1;;
32325;SDS011;45767;52.316;5.040;2023-06-22T03:51:11;21.3;;;14.5;;
32325;SDS011;45767;52.316;5.040;2023-06-22T04:21:12;33.2;;;22.4;;
32325;SDS011;45767;52.316;5.040;2023-06-22T04:51:13;38.8;;;22.5;;
32325;SDS011;45767;52.316;5.040;2023-06-22T05:21:14;31.0;;;22.2;;
32325;SDS011;45767;52.316;5.040;2023-06-22T05:51:15;36.3;;;24.9;;
32325;SDS011;45767;52.316;5.040;2023-06-22T06:21:17;38.0;;;25.7;;
32325;SDS011;45767;52.316;5.040;2023-06-22T06:51:18;38.9;;;27.2;;
32325;SDS011;45767;52.316;5.040;2023-06-22T07:21:20;28.9;;;21.1;;
32325;SDS011;45767;52.316;5.040;2023-06-22T07:51:23;25.3;;;17.2;;
32325;SDS011;45767;52.316;5.040;2023-06-22T08:21:26;18.2;;;13.5;;
32325;SDS011;45767;52.316;5.040;2023-06-22T08:51:30;25.6;;;16.5;;
32325;SDS011;45767;52.316;5.040;2023-06-22T09:21:33;27.1;;;18.8;;
32325;SDS011;45767;52.316;5.040;2023-06-22T09:51:37;29.2;;;21.7;;
32325;SDS011;45767;52.316;5.040;2023-06-22T10:21:40;24.1;;;18.0;;
32325;SDS011;45767;52.316;5.040;2023-06-22T10:51:44;22.8;;;15.5;;
32325;SDS011;45767;52.316;5.040;2023-06-22T11:21:47;23.6;;;17.0;;
32325;SDS011;45767;52.316;5.040;2023-06-22T11:51:51;23.8;;;15.9;;
32325;SDS011;45767;52.316;5.040;2023-06-22T12:21:54;18.1;;;14.4;;
32325;SDS011;45767;52.316;5.040;2023-06-22T12:51:58;15.7;;;11.8;;
32325;SDS011;45767;52.316;5.040;2023-06-22T13:22:01;15.0;;;9.2;;
32325;SDS011;45767;52.316;5.040;2023-06-22T13:52:05;11.8;;;7.4;;
32325;SDS011;45767;52.316;5.040;2023-06-22T14:22:08;8.7;;;7.0;;
32325;SDS011;45767;52.316;5.040;2023-06-22T14:52:12;13.8;;;8.6;;
32325;SDS011;45767;52.316;5.040;2023-06-22T15:22:15;12.6;;;9.6;;
32325;SDS011;45767;52.316;5.040;2023-06-22T15:52:18;13.7;;;10.3;;
32325;SDS011;45767;52.316;5.040;2023-06-22T16:22:21;13.4;;;10.9;;
32325;SDS011;45767;52.316;5.040;2023-06-22T16:52:24;10.3;;;8.1;;
32325;SDS011;45767;52.316;5.040;2023-06-22T17:22:28;8.3;;;5.6;;
32325;SDS011;45767;52.316;5.040;2023-06-22T17:52:29;7.4;;;4.6;;
32325;SDS011;45767;52.316;5.040;2023-06-22T18:22:32;4.6;;;2.5;;
32325;SDS011;45767;52.316;5.040;2023-06-22T18:52:35;3.1;;;1.9;;
32325;SDS011;45767;52.316;5.040;2023-06-22T19:22:45;7.7;;;3.1;;
32325;SDS011;45767;52.316;5.040;2023-06-22T19:52:39;4.6;;;2.5;;
32325;SDS011;45767;52.316;5.040;2023-06-22T20:22:41;10.0;;;2.8;;
32325;SDS011;45767;52.316;5.040;2023-06-22T20:52:42;8.5;;;3.8;;
32325;SDS011;45767;52.316;5.040;2023-06-22T21:22:44;6.7;;;4.9;;
32325;SDS011;45767;52.316;5.040;2023-06-22T21:52:45;9.1;;;6.7;;
32325;SDS011;45767;52.316;5.040;2023-06-22T22:22:47;10.1;;;6.6;;
32325;SDS011;45767;52.316;5.040;2023-06-22T22:52:48;11.7;;;7.3;;
32325;SDS011;45767;52.316;5.040;2023-06-22T23:22:53;10.4;;;7.2;;
32325;SDS011;45767;52.316;5.040;2023-06-22T23:52:50;11.3;;;7.6;;
